createdAt,value
2022-08-02T00:01:03.424Z,5.22
2022-08-02T00:03:05.612Z,4.82
2022-08-02T00:05:08.139Z,2.50
2022-08-02T00:07:17.433Z,1.92
2022-08-02T00:09:19.470Z,3.20
2022-08-02T00:11:23.549Z,3.65
2022-08-02T00:13:25.442Z,3.88
2022-08-02T00:15:27.672Z,2.85
2022-08-02T00:17:29.831Z,2.42
2022-08-02T00:19:31.898Z,1.95
2022-08-02T00:21:34.148Z,2.58
2022-08-02T00:24:03.344Z,1.50
2022-08-02T00:25:59.027Z,4.53
2022-08-02T00:28:01.060Z,4.65
2022-08-02T00:30:02.943Z,3.47
2022-08-02T00:32:05.316Z,17.20
2022-08-02T00:34:30.450Z,2.05
2022-08-02T00:36:29.634Z,1.95
2022-08-02T00:38:31.582Z,3.17
2022-08-02T00:40:33.754Z,4.72
2022-08-02T00:42:35.722Z,1.50
2022-08-02T00:44:37.815Z,5.22
2022-08-02T00:46:40.025Z,2.92
2022-08-02T00:48:43.222Z,4.00
2022-08-02T00:50:45.262Z,4.82
2022-08-02T00:52:47.363Z,5.47
2022-08-02T00:54:49.616Z,3.88
2022-08-02T00:56:51.717Z,4.10
2022-08-02T00:58:53.784Z,1.85
2022-08-02T01:00:57.812Z,2.15
2022-08-02T01:03:04.289Z,3.88
2022-08-02T01:05:09.406Z,4.60
2022-08-02T01:07:15.951Z,3.42
2022-08-02T01:09:18.301Z,1.70
2022-08-02T01:11:20.993Z,4.50
2022-08-02T01:13:23.072Z,2.67
2022-08-02T01:15:36.019Z,4.28
2022-08-02T01:18:03.144Z,1.38
2022-08-02T01:20:46.396Z,3.55
2022-08-02T01:23:16.685Z,1.58
2022-08-02T01:25:56.376Z,3.05
2022-08-02T01:28:35.991Z,2.33
2022-08-02T01:30:41.026Z,1.85
2022-08-02T01:32:49.664Z,2.97
2022-08-02T01:35:00.053Z,1.42
2022-08-02T01:37:20.652Z,5.80
2022-08-02T01:39:31.795Z,1.75
2022-08-02T01:41:35.371Z,3.38
2022-08-02T01:43:40.521Z,2.35
2022-08-02T01:45:44.895Z,3.08
2022-08-02T01:47:48.318Z,4.32
2022-08-02T01:49:53.282Z,5.90
2022-08-02T01:52:15.397Z,3.28
2022-08-02T01:54:19.834Z,3.05
2022-08-02T01:56:22.720Z,2.25
2022-08-02T01:58:31.547Z,2.13
2022-08-02T02:00:40.254Z,1.50
2022-08-02T02:02:48.254Z,2.03
2022-08-02T02:04:52.496Z,3.15
2022-08-02T02:07:03.318Z,3.50
2022-08-02T02:09:07.266Z,5.75
2022-08-02T02:12:11.680Z,5.07
2022-08-02T02:13:33.852Z,2.47
2022-08-02T02:15:42.499Z,1.42
2022-08-02T02:18:12.630Z,5.40
2022-08-02T02:20:18.974Z,3.22
2022-08-02T02:22:21.093Z,7.95
2022-08-02T02:24:25.984Z,4.97
2022-08-02T02:26:31.807Z,5.20
2022-08-02T02:28:37.555Z,1.63
2022-08-02T02:30:43.344Z,2.72
2022-08-02T02:32:47.932Z,4.75
2022-08-02T02:34:51.877Z,5.97
2022-08-02T02:36:59.819Z,2.25
2022-08-02T02:39:04.530Z,3.85
2022-08-02T02:41:19.211Z,0.88
2022-08-02T02:43:22.852Z,1.83
2022-08-02T02:45:26.452Z,2.17
2022-08-02T02:47:40.792Z,5.60
2022-08-02T02:49:46.272Z,3.25
2022-08-02T02:51:48.849Z,1.85
2022-08-02T02:54:30.250Z,2.78
2022-08-02T02:56:16.561Z,5.72
2022-08-02T02:58:18.981Z,4.10
2022-08-02T03:00:49.275Z,3.05
2022-08-02T03:02:51.527Z,1.77
2022-08-02T03:04:57.957Z,1.83
2022-08-02T03:07:09.928Z,1.75
2022-08-02T03:09:12.066Z,1.20
2022-08-02T03:11:14.200Z,3.15
2022-08-02T03:13:17.618Z,1.58
2022-08-02T03:15:21.380Z,3.72
2022-08-02T03:17:23.204Z,2.75
2022-08-02T03:19:25.015Z,3.95
2022-08-02T03:21:35.164Z,4.03
2022-08-02T03:23:36.982Z,2.15
2022-08-02T03:25:38.819Z,3.72
2022-08-02T03:27:40.826Z,3.80
2022-08-02T03:29:42.692Z,1.75
2022-08-02T03:31:46.960Z,1.83
2022-08-02T03:33:49.571Z,1.70
2022-08-02T03:35:54.263Z,3.50
2022-08-02T03:37:57.853Z,2.05
2022-08-02T03:40:00.561Z,3.63
2022-08-02T03:42:02.546Z,1.60
2022-08-02T03:44:07.194Z,4.07
2022-08-02T03:46:10.034Z,5.32
2022-08-02T03:48:33.777Z,2.97
2022-08-02T03:50:37.733Z,2.45
2022-08-02T03:52:45.618Z,2.42
2022-08-02T03:54:47.538Z,2.85
2022-08-02T03:56:49.729Z,3.67
2022-08-02T03:59:05.918Z,5.55
2022-08-02T04:01:08.014Z,3.10
2022-08-02T04:03:09.881Z,3.05
2022-08-02T04:05:13.617Z,3.00
2022-08-02T04:07:15.622Z,2.45
2022-08-02T04:09:37.540Z,3.25
2022-08-02T04:11:39.460Z,2.80
2022-08-02T04:13:42.120Z,4.05
2022-08-02T04:15:44.902Z,6.05
2022-08-02T04:17:52.411Z,3.25
2022-08-02T04:19:58.827Z,3.88
2022-08-02T04:22:05.010Z,2.45
2022-08-02T04:24:10.995Z,4.25
2022-08-02T04:26:13.950Z,2.63
2022-08-02T04:28:27.507Z,3.00
2022-08-02T04:30:30.864Z,8.80
2022-08-02T04:32:33.364Z,2.58
2022-08-02T04:34:35.687Z,6.10
2022-08-02T04:36:38.694Z,2.80
2022-08-02T04:38:41.959Z,6.40
2022-08-02T04:40:55.536Z,2.28
2022-08-02T04:42:57.599Z,8.95
2022-08-02T04:44:59.563Z,6.18
2022-08-02T04:47:06.881Z,4.25
2022-08-02T04:49:09.359Z,3.47
2022-08-02T04:51:12.159Z,2.80
2022-08-02T04:53:14.159Z,4.60
2022-08-02T04:55:15.849Z,3.20
2022-08-02T04:57:36.887Z,6.15
2022-08-02T04:59:38.590Z,4.50
2022-08-02T05:01:42.450Z,4.13
2022-08-02T05:03:44.313Z,4.47
2022-08-02T05:05:48.606Z,3.60
2022-08-02T05:07:50.300Z,3.55
2022-08-02T05:09:51.988Z,7.88
2022-08-02T05:11:55.200Z,3.33
2022-08-02T05:13:57.992Z,2.88
2022-08-02T05:16:03.152Z,5.57
2022-08-02T05:18:05.077Z,4.90
2022-08-02T05:20:07.207Z,7.82
2022-08-02T05:22:09.282Z,5.28
2022-08-02T05:24:11.342Z,4.38
2022-08-02T05:26:13.045Z,9.30
2022-08-02T05:28:18.544Z,3.95
2022-08-02T05:30:20.901Z,6.15
2022-08-02T05:32:23.876Z,3.08
2022-08-02T05:34:27.660Z,9.10
2022-08-02T05:36:29.775Z,4.25
2022-08-02T05:38:32.519Z,2.60
2022-08-02T05:40:54.403Z,4.10
2022-08-02T05:42:57.095Z,3.92
2022-08-02T05:44:59.181Z,6.40
2022-08-02T05:47:00.909Z,4.45
2022-08-02T05:49:04.592Z,3.53
2022-08-02T05:51:16.930Z,3.33
2022-08-02T05:53:34.958Z,7.15
2022-08-02T05:55:47.548Z,7.18
2022-08-02T05:58:20.786Z,5.50
2022-08-02T06:00:22.913Z,4.70
2022-08-02T06:02:43.846Z,3.28
2022-08-02T06:05:11.212Z,5.78
2022-08-02T06:07:15.587Z,5.45
2022-08-02T06:09:23.170Z,3.50
2022-08-02T06:11:38.202Z,3.75
2022-08-02T06:13:42.131Z,2.22
2022-08-02T06:15:52.871Z,8.07
2022-08-02T06:17:57.857Z,3.42
2022-08-02T06:20:00.944Z,3.00
2022-08-02T06:22:34.891Z,7.32
2022-08-02T06:24:37.050Z,4.55
2022-08-02T06:26:39.447Z,7.22
2022-08-02T06:28:41.693Z,10.98
2022-08-02T06:30:44.782Z,3.38
2022-08-02T06:32:50.717Z,5.93
2022-08-02T06:34:52.407Z,9.80
2022-08-02T06:37:14.563Z,5.47
2022-08-02T06:39:35.916Z,4.47
2022-08-02T06:41:43.614Z,6.03
2022-08-02T06:44:19.502Z,6.55
2022-08-02T06:46:57.306Z,4.07
2022-08-02T06:48:45.406Z,3.92
2022-08-02T06:50:47.190Z,4.60
2022-08-02T06:52:48.890Z,8.60
2022-08-02T06:54:50.571Z,4.60
2022-08-02T06:56:52.333Z,4.78
2022-08-02T06:58:54.045Z,6.78
2022-08-02T07:00:55.948Z,5.38
2022-08-02T07:02:58.079Z,4.45
2022-08-02T07:05:00.096Z,7.47
2022-08-02T07:07:01.924Z,3.58
2022-08-02T07:09:21.027Z,14.80
2022-08-02T07:11:24.175Z,7.47
2022-08-02T07:13:25.887Z,5.88
2022-08-02T07:15:27.710Z,8.90
2022-08-02T07:17:30.307Z,5.35
2022-08-02T07:19:37.971Z,5.18
2022-08-02T07:21:56.678Z,4.47
2022-08-02T07:24:01.730Z,4.95
2022-08-02T07:26:05.336Z,6.93
2022-08-02T07:28:24.040Z,5.47
2022-08-02T07:30:26.134Z,5.32
2022-08-02T07:32:32.052Z,7.65
2022-08-02T07:34:33.777Z,6.75
2022-08-02T07:36:35.470Z,8.25
2022-08-02T07:38:37.685Z,8.52
2022-08-02T07:40:39.401Z,4.55
2022-08-02T07:42:43.734Z,8.18
2022-08-02T07:44:49.080Z,6.47
2022-08-02T07:46:51.010Z,3.50
2022-08-02T07:48:55.583Z,6.53
2022-08-02T07:50:57.514Z,9.07
2022-08-02T07:52:59.226Z,6.32
2022-08-02T07:55:01.342Z,3.75
2022-08-02T07:57:03.743Z,5.38
2022-08-02T07:59:05.498Z,3.72
2022-08-02T08:01:08.671Z,7.72
2022-08-02T08:03:10.539Z,6.50
2022-08-02T08:05:12.498Z,2.88
2022-08-02T08:07:14.242Z,5.38
2022-08-02T08:09:15.935Z,6.47
2022-08-02T08:11:17.606Z,2.75
2022-08-02T08:13:19.309Z,6.15
2022-08-02T08:15:21.694Z,3.70
2022-08-02T08:17:23.969Z,5.75
2022-08-02T08:19:50.063Z,12.75
2022-08-02T08:21:48.296Z,8.25
2022-08-02T08:23:50.495Z,9.10
2022-08-02T08:25:52.250Z,3.42
2022-08-02T08:27:53.987Z,7.75
2022-08-02T08:29:55.883Z,4.28
2022-08-02T08:31:57.880Z,7.60
2022-08-02T08:33:59.975Z,1.80
2022-08-02T08:36:02.666Z,3.42
2022-08-02T08:38:07.643Z,4.78
2022-08-02T08:40:11.426Z,4.45
2022-08-02T08:42:13.462Z,4.25
2022-08-02T08:44:15.465Z,4.13
2022-08-02T08:46:28.200Z,7.90
2022-08-02T08:48:33.204Z,5.70
2022-08-02T08:50:39.748Z,4.40
2022-08-02T08:53:08.218Z,7.05
2022-08-02T08:55:14.690Z,5.55
2022-08-02T08:57:18.168Z,5.20
2022-08-02T08:59:19.898Z,4.95
2022-08-02T09:01:21.868Z,9.43
2022-08-02T09:03:23.653Z,5.07
2022-08-02T09:05:25.593Z,2.42
2022-08-02T09:07:28.544Z,2.15
2022-08-02T09:09:30.276Z,5.55
2022-08-02T09:11:32.011Z,3.88
2022-08-02T09:13:44.922Z,6.75
2022-08-02T09:16:10.883Z,10.52
2022-08-02T09:18:20.641Z,2.17
2022-08-02T09:20:22.581Z,2.50
2022-08-02T09:22:24.240Z,3.53
2022-08-02T09:24:25.974Z,2.08
2022-08-02T09:26:33.574Z,3.15
2022-08-02T09:28:37.435Z,3.78
2022-08-02T09:30:43.205Z,4.07
2022-08-02T09:32:46.656Z,8.00
2022-08-02T09:34:53.889Z,1.58
2022-08-02T09:36:55.612Z,4.18
2022-08-02T09:39:04.607Z,4.85
2022-08-02T09:41:19.968Z,6.57
2022-08-02T09:43:21.987Z,7.20
2022-08-02T09:45:30.625Z,13.57
2022-08-02T09:47:37.168Z,3.78
2022-08-02T09:49:50.311Z,6.55
2022-08-02T09:51:57.073Z,2.83
2022-08-02T09:54:08.301Z,3.30
2022-08-02T09:56:29.192Z,5.65
2022-08-02T09:58:38.484Z,18.45
2022-08-02T10:00:55.601Z,6.88
2022-08-02T10:03:21.367Z,2.95
2022-08-02T10:05:30.291Z,4.90
2022-08-02T10:07:41.489Z,4.70
2022-08-02T10:09:47.686Z,8.20
2022-08-02T10:11:50.051Z,3.40
2022-08-02T10:13:53.206Z,2.72
2022-08-02T10:15:56.942Z,3.13
2022-08-02T10:17:58.942Z,4.75
2022-08-02T10:20:04.691Z,3.63
2022-08-02T10:22:11.925Z,1.10
2022-08-02T10:24:17.940Z,4.97
2022-08-02T10:26:20.942Z,4.07
2022-08-02T10:28:31.641Z,2.17
2022-08-02T10:32:43.418Z,4.78
2022-08-02T10:35:19.606Z,4.53
2022-08-02T10:37:33.725Z,0.82
2022-08-02T10:39:45.686Z,1.27
2022-08-02T10:41:51.946Z,1.52
2022-08-02T10:43:54.388Z,3.58
2022-08-02T10:46:32.421Z,1.30
2022-08-02T10:51:53.115Z,3.00
2022-08-02T10:54:10.244Z,5.85
2022-08-02T10:56:12.172Z,3.38
2022-08-02T10:58:26.337Z,2.88
2022-08-02T11:00:31.337Z,19.10
2022-08-02T11:02:53.936Z,3.15
2022-08-02T11:04:55.571Z,6.35
2022-08-02T11:07:18.337Z,2.67
2022-08-02T11:09:31.975Z,26.65
2022-08-02T11:12:05.277Z,1.52
2022-08-02T11:14:08.892Z,5.72
2022-08-02T11:16:12.024Z,1.98
2022-08-02T11:18:22.308Z,0.77
2022-08-02T11:20:26.568Z,3.78
2022-08-02T11:22:28.525Z,5.93
2022-08-02T11:24:35.474Z,3.83
2022-08-02T11:26:37.160Z,3.60
2022-08-02T11:28:39.026Z,3.88
2022-08-02T11:30:40.811Z,6.93
2022-08-02T11:32:43.067Z,4.50
2022-08-02T11:34:47.042Z,6.65
2022-08-02T11:36:50.990Z,3.25
2022-08-02T11:39:11.839Z,7.07
2022-08-02T11:41:46.493Z,7.78
2022-08-02T11:43:43.517Z,7.13
2022-08-02T11:45:45.289Z,10.15
2022-08-02T11:47:47.204Z,8.00
2022-08-02T11:49:48.945Z,4.57
2022-08-02T11:51:55.881Z,1.70
2022-08-02T11:53:57.811Z,4.63
2022-08-02T11:56:00.347Z,6.57
2022-08-02T11:58:07.984Z,4.43
2022-08-02T12:00:17.209Z,5.35
2022-08-02T12:02:20.974Z,1.63
2022-08-02T12:04:23.701Z,4.72
2022-08-02T12:06:31.241Z,6.13
2022-08-02T12:08:36.743Z,5.45
2022-08-02T12:10:48.200Z,2.70
2022-08-02T12:12:51.691Z,3.55
2022-08-02T12:14:53.904Z,2.83
2022-08-02T12:17:15.106Z,3.13
2022-08-02T12:19:19.616Z,6.60
2022-08-02T12:21:25.591Z,7.07
2022-08-02T12:23:28.128Z,3.17
2022-08-02T12:25:34.205Z,7.63
2022-08-02T12:27:42.276Z,4.90
2022-08-02T12:29:57.961Z,2.58
2022-08-02T12:32:01.472Z,1.52
2022-08-02T12:34:15.143Z,2.35
2022-08-02T12:36:27.103Z,2.22
2022-08-02T12:38:28.798Z,11.32
2022-08-02T12:40:32.738Z,2.58
2022-08-02T12:43:05.374Z,3.13
2022-08-02T12:45:07.469Z,3.05
2022-08-02T12:47:09.874Z,5.20
2022-08-02T12:49:19.824Z,4.40
2022-08-02T12:51:54.845Z,7.82
2022-08-02T12:56:03.930Z,3.63
2022-08-02T12:58:05.875Z,3.72
2022-08-02T13:00:09.758Z,17.02
2022-08-02T13:02:13.624Z,4.10
2022-08-02T13:04:16.578Z,7.35
2022-08-02T13:08:41.662Z,1.67
2022-08-02T13:10:43.947Z,7.10
2022-08-02T13:12:46.102Z,1.95
2022-08-02T13:14:47.951Z,6.97
2022-08-02T13:16:49.771Z,6.25
2022-08-02T13:18:51.487Z,1.50
2022-08-02T13:20:53.259Z,4.88
2022-08-02T13:22:55.718Z,2.53
2022-08-02T13:25:06.286Z,1.75
2022-08-02T13:27:09.208Z,5.97
2022-08-02T13:29:12.565Z,3.03
2022-08-02T13:31:35.460Z,6.57
2022-08-02T13:33:36.715Z,2.40
2022-08-02T13:35:38.617Z,5.53
2022-08-02T13:37:41.969Z,3.88
2022-08-02T13:40:00.069Z,5.30
2022-08-02T13:42:06.058Z,5.00
2022-08-02T13:44:10.803Z,3.00
2022-08-02T13:46:13.195Z,2.47
2022-08-02T13:48:23.890Z,32.30
2022-08-02T13:50:25.609Z,2.33
2022-08-02T13:52:30.462Z,4.35
2022-08-02T13:54:32.443Z,8.27
2022-08-02T13:56:35.864Z,1.83
2022-08-02T13:58:38.127Z,4.72
2022-08-02T14:00:40.293Z,4.75
2022-08-02T14:02:41.972Z,3.20
2022-08-02T14:04:44.049Z,3.47
2022-08-02T14:06:45.753Z,2.42
2022-08-02T14:08:47.806Z,10.05
2022-08-02T14:10:50.918Z,6.45
2022-08-02T14:12:56.365Z,4.82
2022-08-02T14:14:58.446Z,2.78
2022-08-02T14:17:00.191Z,2.60
2022-08-02T14:19:05.467Z,2.95
2022-08-02T14:21:12.514Z,6.07
2022-08-02T14:23:14.718Z,4.30
2022-08-02T14:25:16.832Z,2.13
2022-08-02T14:27:18.685Z,5.55
2022-08-02T14:29:20.420Z,2.80
2022-08-02T14:31:22.702Z,6.57
2022-08-02T14:33:24.419Z,4.13
2022-08-02T14:35:26.285Z,4.43
2022-08-02T14:37:27.991Z,6.25
2022-08-02T14:39:42.961Z,2.42
2022-08-02T14:41:59.007Z,2.42
2022-08-02T14:44:05.785Z,1.55
2022-08-02T14:46:07.560Z,3.70
2022-08-02T14:48:26.885Z,2.50
2022-08-02T14:50:28.796Z,3.08
2022-08-02T14:52:30.594Z,6.50
2022-08-02T14:54:33.917Z,1.88
2022-08-02T14:56:35.711Z,4.45
2022-08-02T14:58:37.448Z,2.25
2022-08-02T15:00:41.472Z,6.40
2022-08-02T15:02:43.487Z,2.97
2022-08-02T15:04:45.169Z,4.68
2022-08-02T15:06:47.342Z,5.97
2022-08-02T15:08:49.196Z,4.20
2022-08-02T15:10:50.970Z,3.08
2022-08-02T15:12:52.718Z,4.70
2022-08-02T15:14:54.460Z,5.78
2022-08-02T15:16:58.426Z,6.78
2022-08-02T15:19:00.414Z,4.40
2022-08-02T15:21:03.119Z,5.80
2022-08-02T15:23:18.039Z,6.53
2022-08-02T15:25:20.170Z,5.47
2022-08-02T15:27:21.886Z,4.28
2022-08-02T15:29:23.651Z,4.47
2022-08-02T15:31:33.276Z,7.07
2022-08-02T15:33:35.561Z,4.78
2022-08-02T15:35:37.325Z,3.88
2022-08-02T15:37:41.486Z,4.97
2022-08-02T15:39:43.960Z,10.13
2022-08-02T15:41:45.688Z,4.93
2022-08-02T15:44:00.119Z,8.70
2022-08-02T15:46:03.625Z,5.43
2022-08-02T15:48:05.930Z,5.03
2022-08-02T15:50:07.986Z,2.67
2022-08-02T15:52:12.748Z,6.50
2022-08-02T15:54:14.712Z,3.53
2022-08-02T15:56:16.404Z,3.92
2022-08-02T15:58:24.016Z,3.15
2022-08-02T16:00:26.005Z,5.93
2022-08-02T16:02:27.705Z,4.30
2022-08-02T16:04:29.523Z,9.90
2022-08-02T16:06:31.519Z,5.30
2022-08-02T16:08:33.781Z,10.55
2022-08-02T16:10:35.682Z,9.68
2022-08-02T16:12:38.049Z,4.15
2022-08-02T16:14:39.816Z,3.67
2022-08-02T16:16:41.573Z,4.45
2022-08-02T16:18:43.423Z,11.70
2022-08-02T16:20:45.134Z,4.93
2022-08-02T16:22:46.841Z,7.47
2022-08-02T16:24:48.607Z,8.10
2022-08-02T16:26:50.374Z,8.13
2022-08-02T16:28:55.961Z,4.85
2022-08-02T16:31:10.451Z,5.00
2022-08-02T16:33:13.287Z,6.32
2022-08-02T16:35:15.314Z,9.35
2022-08-02T16:37:17.035Z,7.18
2022-08-02T16:39:18.704Z,6.40
2022-08-02T16:41:20.641Z,8.32
2022-08-02T16:43:22.438Z,10.02
2022-08-02T16:45:24.189Z,13.38
2022-08-02T16:47:42.802Z,10.98
2022-08-02T16:50:04.814Z,6.10
2022-08-02T16:52:09.874Z,7.55
2022-08-02T16:54:13.115Z,8.10
2022-08-02T16:56:15.091Z,2.95
2022-08-02T16:58:24.488Z,4.90
2022-08-02T17:00:27.352Z,11.40
2022-08-02T17:02:29.038Z,5.78
2022-08-02T17:04:30.961Z,7.68
2022-08-02T17:06:34.932Z,7.60
2022-08-02T17:08:38.125Z,9.45
2022-08-02T17:10:56.129Z,8.07
2022-08-02T17:13:11.647Z,7.75
2022-08-02T17:16:07.747Z,15.98
2022-08-02T17:17:37.372Z,5.80
2022-08-02T17:19:42.539Z,4.70
2022-08-02T17:21:44.251Z,5.32
2022-08-02T17:23:47.023Z,7.25
2022-08-02T17:26:07.930Z,15.13
2022-08-02T17:28:21.735Z,7.60
2022-08-02T17:30:33.804Z,6.32
2022-08-02T17:32:35.577Z,8.00
2022-08-02T17:34:38.149Z,7.03
2022-08-02T17:36:40.052Z,24.42
2022-08-02T17:38:50.107Z,12.10
2022-08-02T17:40:56.680Z,6.47
2022-08-02T17:42:58.469Z,7.55
2022-08-02T17:45:07.144Z,10.23
2022-08-02T17:47:18.747Z,5.18
2022-08-02T17:49:23.091Z,8.25
2022-08-02T17:52:15.374Z,5.97
2022-08-02T17:53:46.709Z,9.93
2022-08-02T17:55:51.484Z,8.75
2022-08-02T17:57:57.740Z,8.75
2022-08-02T18:00:04.263Z,7.57
2022-08-02T18:02:06.423Z,7.53
2022-08-02T18:04:10.066Z,9.07
2022-08-02T18:06:12.454Z,10.65
2022-08-02T18:10:42.374Z,7.47
2022-08-02T18:12:46.302Z,5.28
2022-08-02T18:14:49.173Z,9.95
2022-08-02T18:16:51.346Z,7.55
2022-08-02T18:18:53.040Z,12.48
2022-08-02T18:20:54.820Z,6.45
2022-08-02T18:22:58.523Z,4.20
2022-08-02T18:25:00.778Z,10.43
2022-08-02T18:29:12.869Z,23.95
2022-08-02T18:31:22.727Z,8.85
2022-08-02T18:33:55.093Z,10.32
2022-08-02T18:35:47.478Z,12.55
2022-08-02T18:37:56.766Z,8.80
2022-08-02T18:40:02.701Z,11.60
2022-08-02T18:42:04.560Z,15.05
2022-08-02T18:44:06.990Z,12.60
2022-08-02T18:46:16.140Z,11.88
2022-08-02T18:48:20.024Z,9.40
2022-08-02T18:50:23.677Z,8.80
2022-08-02T18:52:31.264Z,13.35
2022-08-02T18:54:34.204Z,10.57
2022-08-02T18:56:39.052Z,9.23
2022-08-02T18:58:41.386Z,10.70
2022-08-02T19:00:44.164Z,15.85
2022-08-02T19:02:48.804Z,12.48
2022-08-02T19:04:50.637Z,11.93
2022-08-02T19:06:52.382Z,10.80
2022-08-02T19:09:03.576Z,14.82
2022-08-02T19:11:12.075Z,23.45
2022-08-02T19:13:17.603Z,11.52
2022-08-02T19:15:35.573Z,11.73
2022-08-02T19:17:55.276Z,14.10
2022-08-02T19:19:58.798Z,15.23
2022-08-02T19:22:26.886Z,9.63
2022-08-02T19:24:22.698Z,9.85
2022-08-02T19:26:25.890Z,36.60
2022-08-02T19:28:28.394Z,16.30
2022-08-02T19:30:30.437Z,11.70
2022-08-02T19:32:42.298Z,18.27
2022-08-02T19:34:56.278Z,8.82
2022-08-02T19:36:58.211Z,14.48
2022-08-02T19:39:00.865Z,11.85
2022-08-02T19:41:03.133Z,9.27
2022-08-02T19:44:23.730Z,14.23
2022-08-02T19:45:49.228Z,14.05
2022-08-02T19:47:54.333Z,10.85
2022-08-02T19:49:57.147Z,11.10
2022-08-02T19:51:59.330Z,15.40
2022-08-02T19:54:01.302Z,17.10
2022-08-02T19:56:03.951Z,22.35
2022-08-02T19:58:06.299Z,20.70
2022-08-02T20:00:11.746Z,15.27
2022-08-02T20:02:15.965Z,12.63
2022-08-02T20:04:23.003Z,14.30
2022-08-02T20:06:45.391Z,17.98
2022-08-02T20:08:56.967Z,16.42
2022-08-02T20:10:59.451Z,17.13
2022-08-02T20:13:01.416Z,17.80
2022-08-02T20:15:14.374Z,10.38
2022-08-02T20:17:20.643Z,15.23
2022-08-02T20:19:23.158Z,15.15
2022-08-02T20:21:35.398Z,14.20
2022-08-02T20:23:38.641Z,32.78
2022-08-02T20:25:45.170Z,13.90
2022-08-02T20:27:51.200Z,16.73
2022-08-02T20:29:53.596Z,22.98
2022-08-02T20:31:55.547Z,15.00
2022-08-02T20:33:58.013Z,13.20
2022-08-02T20:36:01.838Z,13.93
2022-08-02T20:38:04.755Z,14.45
2022-08-02T20:40:07.780Z,15.30
2022-08-02T20:42:23.452Z,11.55
2022-08-02T20:44:30.683Z,13.40
2022-08-02T20:46:33.247Z,13.80
2022-08-02T20:48:37.040Z,13.65
2022-08-02T20:50:56.960Z,15.90
2022-08-02T20:53:01.123Z,13.68
2022-08-02T20:55:03.464Z,14.60
2022-08-02T20:57:05.379Z,9.18
2022-08-02T20:59:15.480Z,10.57
2022-08-02T21:01:18.150Z,13.25
2022-08-02T21:03:23.682Z,11.63
2022-08-02T21:05:26.682Z,15.73
2022-08-02T21:07:47.794Z,14.25
2022-08-02T21:09:53.733Z,15.52
2022-08-02T21:11:56.336Z,15.65
2022-08-02T21:14:07.786Z,15.25
2022-08-02T21:16:16.347Z,13.93
2022-08-02T21:18:34.650Z,13.20
2022-08-02T21:20:44.292Z,14.38
2022-08-02T21:22:46.234Z,18.98
2022-08-02T21:24:48.225Z,16.42
2022-08-02T21:26:50.192Z,10.43
2022-08-02T21:28:54.339Z,14.98
2022-08-02T21:30:57.140Z,17.70
2022-08-02T21:32:59.156Z,18.48
2022-08-02T21:35:02.678Z,14.63
2022-08-02T21:37:10.049Z,48.42
2022-08-02T21:39:12.452Z,32.15
2022-08-02T21:41:14.407Z,12.52
2022-08-02T21:45:53.889Z,15.18
2022-08-02T21:47:57.661Z,13.10
2022-08-02T21:50:10.521Z,10.35
2022-08-02T21:52:19.909Z,13.88
2022-08-02T21:54:27.347Z,18.60
2022-08-02T21:56:30.172Z,12.70
2022-08-02T21:58:33.952Z,21.83
2022-08-02T22:00:36.616Z,11.75
2022-08-02T22:02:38.624Z,10.93
2022-08-02T22:04:47.512Z,14.68
2022-08-02T22:06:50.253Z,10.65
2022-08-02T22:08:52.525Z,17.00
2022-08-02T22:11:03.582Z,15.63
2022-08-02T22:13:05.697Z,14.95
2022-08-02T22:15:16.995Z,12.18
2022-08-02T22:17:51.597Z,20.38
2022-08-02T22:19:54.371Z,10.43
2022-08-02T22:21:59.212Z,11.88
2022-08-02T22:24:01.365Z,15.35
2022-08-02T22:26:03.550Z,19.35
2022-08-02T22:28:37.776Z,10.68
2022-08-02T22:30:40.727Z,12.82
2022-08-02T22:33:01.409Z,12.27
2022-08-02T22:35:17.108Z,14.27
2022-08-02T22:38:16.884Z,18.67
2022-08-02T22:40:06.045Z,10.90
2022-08-02T22:42:05.710Z,14.38
2022-08-02T22:44:09.069Z,13.95
2022-08-02T22:46:15.255Z,13.95
2022-08-02T22:48:24.110Z,14.68
2022-08-02T22:50:27.751Z,11.45
2022-08-02T22:52:29.718Z,15.30
2022-08-02T22:54:31.667Z,9.80
2022-08-02T22:56:34.063Z,9.43
2022-08-02T22:58:58.609Z,11.13
2022-08-02T22:59:07.507Z,11.27
2022-08-02T23:00:59.516Z,14.18
2022-08-02T23:03:01.556Z,17.50
2022-08-02T23:05:06.374Z,19.20
2022-08-02T23:07:08.422Z,10.43
2022-08-02T23:09:10.456Z,11.55
2022-08-02T23:11:14.311Z,12.32
2022-08-02T23:13:16.488Z,14.43
2022-08-02T23:15:18.753Z,17.65
2022-08-02T23:17:39.483Z,17.00
2022-08-02T23:22:02.858Z,15.15
2022-08-02T23:24:05.503Z,15.13
2022-08-02T23:26:07.687Z,14.13
2022-08-02T23:28:12.092Z,11.60
2022-08-02T23:30:14.248Z,15.65
2022-08-02T23:32:16.818Z,16.48
2022-08-02T23:34:19.049Z,18.10
2022-08-02T23:36:21.429Z,17.55
2022-08-02T23:38:27.296Z,15.27
2022-08-02T23:40:40.602Z,17.13
2022-08-02T23:42:49.793Z,15.63
2022-08-02T23:44:52.770Z,13.60
2022-08-02T23:46:55.886Z,12.70
2022-08-02T23:48:57.869Z,19.02
2022-08-02T23:51:00.029Z,15.38
2022-08-02T23:53:02.220Z,14.40
2022-08-02T23:55:04.522Z,13.40
2022-08-02T23:57:20.140Z,12.30
2022-08-02T23:59:23.615Z,17.33
